createdAt,value
2022-12-28T00:02:27.880Z,12.60
2022-12-28T00:04:56.035Z,14.20
2022-12-28T00:07:24.107Z,13.20
2022-12-28T00:09:51.929Z,13.80
2022-12-28T00:12:20.031Z,13.40
2022-12-28T00:14:48.004Z,15.60
2022-12-28T00:17:16.066Z,14.60
2022-12-28T00:19:44.142Z,14.60
2022-12-28T00:22:12.229Z,15.30
2022-12-28T00:24:40.332Z,13.90
2022-12-28T00:27:08.581Z,15.90
2022-12-28T00:29:36.791Z,16.60
2022-12-28T00:32:05.269Z,16.40
2022-12-28T00:34:33.265Z,16.60
2022-12-28T00:37:09.902Z,17.30
2022-12-28T00:39:45.649Z,16.40
2022-12-28T00:42:16.282Z,17.00
2022-12-28T00:44:45.913Z,17.40
2022-12-28T00:47:20.523Z,18.20
2022-12-28T00:49:48.658Z,19.80
2022-12-28T00:52:16.523Z,19.00
2022-12-28T00:54:44.606Z,18.00
2022-12-28T00:57:12.788Z,17.80
2022-12-28T00:59:40.723Z,18.20
2022-12-28T01:02:08.945Z,18.50
2022-12-28T01:04:40.149Z,16.70
2022-12-28T01:07:09.622Z,17.00
2022-12-28T01:09:37.612Z,16.30
2022-12-28T01:12:05.797Z,14.70
2022-12-28T01:14:33.954Z,14.80
2022-12-28T01:17:02.949Z,13.30
2022-12-28T01:19:35.305Z,13.40
2022-12-28T01:22:03.272Z,13.70
2022-12-28T01:24:31.258Z,20.70
2022-12-28T01:27:04.532Z,21.30
2022-12-28T01:29:35.915Z,22.40
2022-12-28T01:32:04.056Z,54.50
2022-12-28T01:34:32.110Z,42.70
2022-12-28T01:37:00.088Z,31.80
2022-12-28T01:39:31.628Z,63.10
2022-12-28T01:42:02.904Z,38.90
2022-12-28T01:44:44.759Z,25.10
2022-12-28T01:47:38.208Z,22.20
2022-12-28T01:50:17.173Z,21.40
2022-12-28T01:53:05.945Z,30.30
2022-12-28T01:55:41.126Z,49.00
2022-12-28T01:58:19.148Z,47.10
2022-12-28T02:00:47.241Z,35.50
2022-12-28T02:03:38.034Z,32.10
2022-12-28T02:06:11.769Z,16.50
2022-12-28T02:08:50.664Z,13.20
2022-12-28T02:11:22.233Z,12.80
2022-12-28T02:13:57.926Z,12.70
2022-12-28T02:16:29.336Z,12.50
2022-12-28T02:18:57.685Z,12.60
2022-12-28T02:21:30.898Z,12.80
2022-12-28T02:24:34.251Z,15.40
2022-12-28T02:27:23.739Z,21.50
2022-12-28T02:30:07.927Z,54.80
2022-12-28T02:32:57.758Z,21.90
2022-12-28T02:35:57.191Z,11.50
2022-12-28T02:38:52.129Z,11.90
2022-12-28T02:41:25.992Z,10.30
2022-12-28T02:43:58.807Z,10.30
2022-12-28T02:46:52.266Z,9.80
2022-12-28T02:49:47.222Z,11.10
2022-12-28T02:52:56.033Z,11.30
2022-12-28T02:55:48.983Z,10.40
2022-12-28T02:58:36.079Z,10.40
2022-12-28T03:01:16.272Z,9.00
2022-12-28T03:04:28.673Z,9.60
2022-12-28T03:07:36.724Z,10.70
2022-12-28T03:10:27.823Z,11.00
2022-12-28T03:13:33.856Z,12.80
2022-12-28T03:16:15.782Z,11.00
2022-12-28T03:19:15.190Z,11.00
2022-12-28T03:22:11.723Z,9.40
2022-12-28T03:25:04.029Z,8.40
2022-12-28T03:27:54.778Z,8.40
2022-12-28T03:30:46.104Z,7.40
2022-12-28T03:33:18.108Z,7.20
2022-12-28T03:35:58.193Z,7.70
2022-12-28T03:38:40.269Z,7.80
2022-12-28T03:41:22.832Z,8.30
2022-12-28T03:44:01.154Z,7.50
2022-12-28T03:46:41.093Z,7.40
2022-12-28T03:49:10.355Z,9.60
2022-12-28T03:51:43.468Z,15.00
2022-12-28T03:54:21.345Z,9.80
2022-12-28T03:56:52.672Z,6.60
2022-12-28T03:59:24.051Z,12.00
2022-12-28T04:01:56.775Z,8.40
2022-12-28T04:04:26.578Z,13.00
2022-12-28T04:06:54.581Z,9.10
2022-12-28T04:09:26.489Z,7.00
2022-12-28T04:11:54.645Z,14.40
2022-12-28T04:14:31.217Z,10.20
2022-12-28T04:16:59.397Z,8.30
2022-12-28T04:19:31.024Z,30.10
2022-12-28T04:21:59.150Z,27.90
2022-12-28T04:24:27.253Z,30.90
2022-12-28T04:26:55.451Z,46.10
2022-12-28T04:29:23.467Z,31.20
2022-12-28T04:32:01.413Z,14.40
2022-12-28T04:34:29.547Z,12.90
2022-12-28T04:37:09.360Z,7.00
2022-12-28T04:39:54.781Z,10.80
2022-12-28T04:42:26.931Z,10.00
2022-12-28T04:44:55.024Z,9.50
2022-12-28T04:47:23.230Z,12.70
2022-12-28T04:49:51.464Z,24.70
2022-12-28T04:52:22.930Z,21.60
2022-12-28T04:54:51.027Z,35.90
2022-12-28T04:57:19.053Z,23.40
2022-12-28T04:59:46.943Z,50.00
2022-12-28T05:02:15.063Z,69.70
2022-12-28T05:04:46.427Z,40.10
2022-12-28T05:07:14.397Z,31.70
2022-12-28T05:09:42.283Z,34.60
2022-12-28T05:12:10.453Z,21.30
2022-12-28T05:14:38.418Z,37.20
2022-12-28T05:17:06.470Z,36.40
2022-12-28T05:19:34.434Z,15.90
2022-12-28T05:22:02.489Z,44.80
2022-12-28T05:24:33.950Z,19.40
2022-12-28T05:27:02.109Z,16.70
2022-12-28T05:29:30.239Z,14.30
2022-12-28T05:31:58.190Z,56.90
2022-12-28T05:34:26.204Z,28.70
2022-12-28T05:36:54.304Z,19.70
2022-12-28T05:39:22.445Z,18.20
2022-12-28T05:41:50.513Z,32.10
2022-12-28T05:44:18.621Z,14.90
2022-12-28T05:46:46.717Z,18.90
2022-12-28T05:49:14.683Z,11.30
2022-12-28T05:51:42.671Z,16.90
2022-12-28T05:54:10.670Z,7.20
2022-12-28T05:56:38.595Z,32.20
2022-12-28T05:59:11.553Z,32.50
2022-12-28T06:01:44.444Z,19.20
2022-12-28T06:04:21.338Z,10.80
2022-12-28T06:06:54.398Z,10.70
2022-12-28T06:09:22.320Z,8.60
2022-12-28T06:11:53.650Z,8.40
2022-12-28T06:14:21.673Z,12.50
2022-12-28T06:16:49.972Z,7.80
2022-12-28T06:19:21.627Z,5.50
2022-12-28T06:21:49.779Z,6.10
2022-12-28T06:24:22.272Z,9.40
2022-12-28T06:26:51.984Z,9.20
2022-12-28T06:29:20.117Z,11.80
2022-12-28T06:31:52.060Z,9.30
2022-12-28T06:34:20.104Z,8.10
2022-12-28T06:36:53.582Z,6.30
2022-12-28T06:39:21.522Z,11.90
2022-12-28T06:41:49.636Z,10.50
2022-12-28T06:44:17.819Z,6.60
2022-12-28T06:46:45.902Z,6.50
2022-12-28T06:49:13.893Z,7.10
2022-12-28T06:51:42.839Z,7.60
2022-12-28T06:54:11.608Z,9.50
2022-12-28T06:56:43.481Z,7.60
2022-12-28T06:59:11.640Z,10.90
2022-12-28T07:01:46.556Z,30.80
2022-12-28T07:04:14.855Z,12.10
2022-12-28T07:06:47.004Z,13.90
2022-12-28T07:09:19.192Z,9.10
2022-12-28T07:11:53.184Z,14.50
2022-12-28T07:14:21.139Z,10.20
2022-12-28T07:16:53.274Z,17.00
2022-12-28T07:19:21.175Z,15.60
2022-12-28T07:21:52.888Z,15.30
2022-12-28T07:24:21.149Z,17.60
2022-12-28T07:26:52.591Z,12.30
2022-12-28T07:29:20.720Z,13.60
2022-12-28T07:31:48.731Z,13.20
2022-12-28T07:34:17.029Z,11.30
2022-12-28T07:36:45.256Z,14.00
2022-12-28T07:39:13.268Z,14.50
2022-12-28T07:41:44.842Z,15.40
2022-12-28T07:44:12.810Z,14.50
2022-12-28T07:46:40.819Z,16.00
2022-12-28T07:49:08.951Z,18.00
2022-12-28T07:51:41.093Z,15.60
2022-12-28T07:54:09.218Z,12.20
2022-12-28T07:59:08.009Z,14.50
2022-12-28T08:01:40.162Z,11.10
2022-12-28T08:04:14.102Z,12.20
2022-12-28T08:06:46.306Z,13.50
2022-12-28T08:09:18.217Z,8.20
2022-12-28T08:11:52.004Z,9.90
2022-12-28T08:14:19.836Z,11.20
2022-12-28T08:16:47.888Z,33.70
2022-12-28T08:19:16.079Z,59.40
2022-12-28T08:21:48.188Z,43.50
2022-12-28T08:24:21.083Z,23.40
2022-12-28T08:26:49.335Z,66.50
2022-12-28T08:29:23.053Z,33.10
2022-12-28T08:31:51.523Z,31.60
2022-12-28T08:34:26.970Z,38.30
2022-12-28T08:36:58.950Z,23.80
2022-12-28T08:39:26.876Z,33.90
2022-12-28T08:41:54.895Z,30.60
2022-12-28T08:44:23.023Z,21.40
2022-12-28T08:46:51.059Z,27.20
2022-12-28T08:49:19.207Z,47.50
2022-12-28T08:51:47.172Z,92.40
2022-12-28T08:54:18.732Z,72.50
2022-12-28T08:56:50.587Z,82.00
2022-12-28T08:59:22.176Z,36.10
2022-12-28T09:01:50.470Z,53.50
2022-12-28T09:04:25.457Z,78.00
2022-12-28T09:06:53.646Z,56.20
2022-12-28T09:09:25.284Z,115.10
2022-12-28T09:11:53.325Z,69.10
2022-12-28T09:14:25.188Z,69.40
2022-12-28T09:16:57.211Z,65.00
2022-12-28T09:19:25.270Z,35.40
2022-12-28T09:21:53.831Z,37.20
2022-12-28T09:24:25.328Z,66.80
2022-12-28T09:26:56.879Z,35.40
2022-12-28T09:29:25.034Z,47.80
2022-12-28T09:31:53.188Z,31.00
2022-12-28T09:34:37.907Z,56.20
2022-12-28T09:37:09.224Z,53.60
2022-12-28T09:39:37.448Z,57.70
2022-12-28T09:42:28.222Z,43.10
2022-12-28T09:45:14.501Z,38.30
2022-12-28T09:48:00.598Z,35.50
2022-12-28T09:50:35.601Z,18.10
2022-12-28T09:53:34.563Z,89.20
2022-12-28T09:56:14.177Z,31.40
2022-12-28T09:58:48.026Z,30.70
2022-12-28T10:01:22.037Z,41.10
2022-12-28T10:03:53.683Z,67.10
2022-12-28T10:06:28.955Z,83.30
2022-12-28T10:09:02.451Z,51.40
2022-12-28T10:11:39.444Z,30.40
2022-12-28T10:14:27.925Z,44.50
2022-12-28T10:16:59.451Z,33.30
2022-12-28T10:19:31.626Z,14.10
2022-12-28T10:22:06.141Z,51.60
2022-12-28T10:24:38.988Z,22.80
2022-12-28T10:27:23.478Z,48.90
2022-12-28T10:29:56.132Z,30.80
2022-12-28T10:32:24.335Z,38.90
2022-12-28T10:35:05.228Z,26.40
2022-12-28T10:37:47.204Z,24.10
2022-12-28T10:40:32.837Z,34.70
2022-12-28T10:43:10.460Z,34.80
2022-12-28T10:45:49.886Z,24.90
2022-12-28T10:48:40.051Z,27.70
2022-12-28T10:51:19.080Z,32.00
2022-12-28T10:53:55.112Z,24.10
2022-12-28T10:56:28.038Z,18.60
2022-12-28T10:59:33.938Z,20.80
2022-12-28T11:02:29.467Z,38.50
2022-12-28T11:05:03.375Z,23.50
2022-12-28T11:07:39.787Z,20.70
2022-12-28T11:10:33.935Z,15.60
2022-12-28T11:13:02.019Z,15.30
2022-12-28T11:15:34.450Z,21.80
2022-12-28T11:18:18.072Z,18.00
2022-12-28T11:20:53.801Z,15.60
2022-12-28T11:23:34.718Z,14.00
2022-12-28T11:26:02.711Z,17.40
2022-12-28T11:28:30.727Z,30.70
2022-12-28T11:31:04.817Z,17.10
2022-12-28T11:33:46.487Z,22.70
2022-12-28T11:36:24.600Z,20.60
2022-12-28T11:38:57.161Z,21.60
2022-12-28T11:41:30.304Z,19.80
2022-12-28T11:44:21.754Z,20.60
2022-12-28T11:47:09.086Z,19.30
2022-12-28T11:49:37.120Z,15.40
2022-12-28T11:52:17.528Z,25.10
2022-12-28T11:55:25.457Z,17.30
2022-12-28T11:57:57.777Z,24.60
2022-12-28T12:00:37.998Z,30.40
2022-12-28T12:03:06.246Z,31.60
2022-12-28T12:05:37.311Z,27.40
2022-12-28T12:08:17.412Z,21.10
2022-12-28T12:10:50.312Z,22.80
2022-12-28T12:13:45.537Z,14.10
2022-12-28T12:17:03.248Z,21.50
2022-12-28T12:19:50.700Z,18.90
2022-12-28T12:22:28.337Z,25.70
2022-12-28T12:25:19.381Z,23.70
2022-12-28T12:28:21.696Z,15.00
2022-12-28T12:30:54.611Z,28.20
2022-12-28T12:33:27.853Z,17.00
2022-12-28T12:36:23.877Z,19.30
2022-12-28T12:39:07.212Z,24.70
2022-12-28T12:41:58.649Z,33.80
2022-12-28T12:44:56.637Z,16.70
2022-12-28T12:47:49.735Z,16.20
2022-12-28T12:50:23.896Z,14.30
2022-12-28T12:52:56.377Z,23.60
2022-12-28T12:55:33.342Z,31.80
2022-12-28T12:58:04.243Z,22.20
2022-12-28T13:01:10.986Z,24.00
2022-12-28T13:03:57.280Z,17.40
2022-12-28T13:06:30.437Z,13.10
2022-12-28T13:09:05.907Z,15.90
2022-12-28T13:11:41.846Z,12.80
2022-12-28T13:14:23.918Z,12.00
2022-12-28T13:16:58.412Z,13.90
2022-12-28T13:19:30.907Z,17.00
2022-12-28T13:21:59.339Z,15.30
2022-12-28T13:24:38.989Z,26.50
2022-12-28T13:27:22.358Z,14.20
2022-12-28T13:29:57.504Z,27.30
2022-12-28T13:32:37.550Z,31.40
2022-12-28T13:35:28.480Z,48.00
2022-12-28T13:38:08.849Z,47.90
2022-12-28T13:40:51.894Z,35.00
2022-12-28T13:43:38.687Z,43.30
2022-12-28T13:46:19.109Z,32.60
2022-12-28T13:48:52.594Z,60.00
2022-12-28T13:51:25.503Z,39.10
2022-12-28T13:53:59.472Z,34.60
2022-12-28T13:56:32.074Z,37.60
2022-12-28T13:59:10.612Z,29.00
2022-12-28T14:01:53.336Z,29.20
2022-12-28T14:07:25.985Z,33.20
2022-12-28T14:09:58.073Z,77.80
2022-12-28T14:12:31.865Z,30.80
2022-12-28T14:15:03.944Z,27.70
2022-12-28T14:17:37.348Z,36.30
2022-12-28T14:20:09.864Z,94.60
2022-12-28T14:22:42.221Z,62.70
2022-12-28T14:25:18.704Z,93.00
2022-12-28T14:27:58.903Z,75.40
2022-12-28T14:30:35.150Z,126.90
2022-12-28T14:33:24.041Z,55.10
2022-12-28T14:36:01.636Z,38.70
2022-12-28T14:38:50.264Z,179.60
2022-12-28T14:41:38.265Z,99.20
2022-12-28T14:44:18.749Z,105.00
2022-12-28T14:46:54.376Z,45.50
2022-12-28T14:49:28.719Z,25.50
2022-12-28T14:52:06.221Z,50.60
2022-12-28T14:54:51.299Z,73.80
2022-12-28T14:57:45.003Z,49.90
2022-12-28T15:00:16.810Z,76.40
2022-12-28T15:02:44.812Z,38.80
2022-12-28T15:05:46.808Z,23.40
2022-12-28T15:08:14.845Z,36.60
2022-12-28T15:10:56.806Z,44.40
2022-12-28T15:13:28.979Z,37.40
2022-12-28T15:16:04.397Z,43.40
2022-12-28T15:18:36.462Z,49.90
2022-12-28T15:21:08.870Z,24.60
2022-12-28T15:23:36.929Z,39.40
2022-12-28T15:26:15.613Z,101.30
2022-12-28T15:28:43.739Z,59.00
2022-12-28T15:31:20.483Z,64.60
2022-12-28T15:33:51.665Z,61.00
2022-12-28T15:36:25.004Z,24.70
2022-12-28T15:38:59.469Z,46.30
2022-12-28T15:41:46.474Z,87.40
2022-12-28T15:44:20.049Z,58.20
2022-12-28T15:46:52.309Z,68.10
2022-12-28T15:49:20.422Z,99.40
2022-12-28T15:51:48.456Z,71.00
2022-12-28T15:54:16.516Z,47.90
2022-12-28T15:56:55.982Z,58.90
2022-12-28T15:59:24.115Z,76.80
2022-12-28T16:01:52.280Z,121.00
2022-12-28T16:04:22.449Z,76.90
2022-12-28T16:06:50.369Z,37.00
2022-12-28T16:09:18.399Z,43.70
2022-12-28T16:11:50.162Z,40.90
2022-12-28T16:14:28.317Z,88.50
2022-12-28T16:16:56.499Z,113.20
2022-12-28T16:19:24.567Z,179.90
2022-12-28T16:21:52.689Z,112.20
2022-12-28T16:24:25.829Z,91.60
2022-12-28T16:26:53.727Z,319.10
2022-12-28T16:29:21.866Z,239.70
2022-12-28T16:31:56.742Z,292.60
2022-12-28T16:34:29.378Z,158.50
2022-12-28T16:37:02.136Z,129.70
2022-12-28T16:39:30.356Z,106.50
2022-12-28T16:42:03.176Z,126.40
2022-12-28T16:44:31.240Z,89.50
2022-12-28T16:47:02.275Z,116.10
2022-12-28T16:49:30.472Z,63.70
2022-12-28T16:52:03.248Z,40.00
2022-12-28T16:54:31.379Z,38.20
2022-12-28T16:56:59.468Z,74.20
2022-12-28T16:59:29.324Z,60.70
2022-12-28T17:02:03.179Z,43.30
2022-12-28T17:04:31.343Z,63.00
2022-12-28T17:07:02.672Z,38.80
2022-12-28T17:09:31.050Z,46.20
2022-12-28T17:11:58.992Z,35.40
2022-12-28T17:14:37.327Z,31.70
2022-12-28T17:17:11.367Z,33.40
2022-12-28T17:19:39.438Z,25.70
2022-12-28T17:22:07.520Z,23.00
2022-12-28T17:24:35.395Z,29.60
2022-12-28T17:27:11.802Z,43.00
2022-12-28T17:29:48.090Z,25.90
2022-12-28T17:32:20.844Z,40.20
2022-12-28T17:34:48.924Z,46.30
2022-12-28T17:37:20.310Z,36.10
2022-12-28T17:39:48.320Z,36.40
2022-12-28T17:42:16.499Z,45.50
2022-12-28T17:44:50.444Z,40.10
2022-12-28T17:47:18.548Z,58.80
2022-12-28T17:49:46.549Z,40.30
2022-12-28T17:52:24.082Z,40.60
2022-12-28T17:54:52.184Z,28.50
2022-12-28T17:57:20.246Z,41.30
2022-12-28T17:59:48.294Z,31.30
2022-12-28T18:02:16.536Z,31.10
2022-12-28T18:04:49.112Z,55.90
2022-12-28T18:07:17.186Z,53.40
2022-12-28T18:09:45.203Z,91.70
2022-12-28T18:12:13.169Z,63.80
2022-12-28T18:14:41.194Z,80.00
2022-12-28T18:17:09.290Z,76.50
2022-12-28T18:19:37.470Z,72.20
2022-12-28T18:22:05.545Z,189.00
2022-12-28T18:24:33.859Z,102.90
2022-12-28T18:27:06.889Z,111.80
2022-12-28T18:29:35.077Z,76.80
2022-12-28T18:32:03.171Z,86.40
2022-12-28T18:34:31.077Z,74.60
2022-12-28T18:36:59.122Z,44.20
2022-12-28T18:39:27.114Z,42.80
2022-12-28T18:41:55.288Z,42.00
2022-12-28T18:44:28.764Z,45.30
2022-12-28T18:46:56.767Z,31.10
2022-12-28T18:49:24.795Z,36.50
2022-12-28T18:51:58.275Z,39.60
2022-12-28T18:54:26.231Z,29.60
2022-12-28T18:56:54.399Z,36.50
2022-12-28T18:59:24.173Z,33.40
2022-12-28T19:02:09.983Z,29.80
2022-12-28T19:04:40.243Z,52.30
2022-12-28T19:07:08.426Z,54.50
2022-12-28T19:09:36.343Z,37.70
2022-12-28T19:12:04.671Z,63.80
2022-12-28T19:14:32.549Z,79.50
2022-12-28T19:17:00.548Z,66.90
2022-12-28T19:19:28.605Z,39.70
2022-12-28T19:22:01.228Z,38.90
2022-12-28T19:24:29.371Z,53.30
2022-12-28T19:26:57.523Z,37.60
2022-12-28T19:29:30.291Z,34.60
2022-12-28T19:31:58.234Z,37.00
2022-12-28T19:34:30.812Z,50.90
2022-12-28T19:36:58.795Z,37.00
2022-12-28T19:39:26.703Z,24.50
2022-12-28T19:41:54.765Z,24.00
2022-12-28T19:44:22.698Z,24.40
2022-12-28T19:46:55.856Z,22.30
2022-12-28T19:49:24.124Z,20.80
2022-12-28T19:51:52.205Z,21.30
2022-12-28T19:54:20.186Z,17.40
2022-12-28T19:56:48.206Z,18.70
2022-12-28T19:59:16.356Z,20.30
2022-12-28T20:01:44.669Z,18.10
2022-12-28T20:04:15.112Z,19.30
2022-12-28T20:06:48.160Z,20.10
2022-12-28T20:09:16.297Z,17.60
2022-12-28T20:11:46.753Z,20.20
2022-12-28T20:14:24.931Z,61.20
2022-12-28T20:16:57.751Z,36.80
2022-12-28T20:19:25.653Z,26.80
2022-12-28T20:21:53.586Z,29.80
2022-12-28T20:24:26.299Z,38.20
2022-12-28T20:27:01.734Z,32.30
2022-12-28T20:29:30.135Z,31.30
2022-12-28T20:31:59.384Z,46.60
2022-12-28T20:34:27.575Z,35.90
2022-12-28T20:36:55.880Z,46.10
2022-12-28T20:39:23.919Z,53.30
2022-12-28T20:42:10.542Z,49.50
2022-12-28T20:44:38.735Z,45.40
2022-12-28T20:47:06.884Z,44.80
2022-12-28T20:49:39.477Z,57.10
2022-12-28T20:52:07.456Z,41.20
2022-12-28T20:54:39.496Z,30.10
2022-12-28T20:57:07.522Z,29.40
2022-12-28T20:59:35.482Z,31.60
2022-12-28T21:02:03.730Z,31.60
2022-12-28T21:04:32.073Z,30.50
2022-12-28T21:07:00.203Z,30.70
2022-12-28T21:09:28.134Z,36.90
2022-12-28T21:11:56.049Z,34.20
2022-12-28T21:14:24.095Z,26.10
2022-12-28T21:16:52.157Z,29.40
2022-12-28T21:19:20.263Z,35.90
2022-12-28T21:21:51.353Z,22.90
2022-12-28T21:24:19.471Z,25.40
2022-12-28T21:26:47.480Z,25.80
2022-12-28T21:29:20.466Z,34.00
2022-12-28T21:31:52.205Z,18.80
2022-12-28T21:34:20.642Z,23.60
2022-12-28T21:36:48.806Z,39.90
2022-12-28T21:39:16.926Z,26.70
2022-12-28T21:41:50.941Z,24.80
2022-12-28T21:44:24.439Z,25.60
2022-12-28T21:46:53.638Z,15.60
2022-12-28T21:49:22.050Z,14.50
2022-12-28T21:51:51.701Z,19.00
2022-12-28T21:54:21.437Z,23.30
2022-12-28T21:56:52.970Z,21.50
2022-12-28T21:59:23.523Z,15.30
2022-12-28T22:02:11.738Z,22.00
2022-12-28T22:05:12.081Z,28.40
2022-12-28T22:07:40.099Z,26.30
2022-12-28T22:10:26.901Z,20.30
2022-12-28T22:12:54.872Z,25.10
2022-12-28T22:15:44.468Z,21.80
2022-12-28T22:18:37.128Z,24.90
2022-12-28T22:21:06.846Z,21.00
2022-12-28T22:23:35.263Z,26.00
2022-12-28T22:26:03.761Z,19.80
2022-12-28T22:28:31.767Z,26.60
2022-12-28T22:31:05.070Z,25.90
2022-12-28T22:33:33.431Z,30.20
2022-12-28T22:36:16.874Z,21.20
2022-12-28T22:38:45.886Z,64.80
2022-12-28T22:41:13.859Z,41.00
2022-12-28T22:43:41.865Z,21.10
2022-12-28T22:46:12.046Z,40.10
2022-12-28T22:48:40.360Z,25.80
2022-12-28T22:51:11.501Z,25.00
2022-12-28T22:53:40.369Z,26.10
2022-12-28T22:56:12.354Z,23.90
2022-12-28T22:58:40.353Z,30.00
2022-12-28T23:01:14.707Z,41.90
2022-12-28T23:03:44.964Z,19.40
2022-12-28T23:06:14.915Z,18.50
2022-12-28T23:08:43.250Z,101.10
2022-12-28T23:11:33.158Z,29.50
2022-12-28T23:14:22.406Z,85.40
2022-12-28T23:16:50.703Z,71.70
2022-12-28T23:19:37.653Z,47.80
2022-12-28T23:22:26.684Z,24.90
2022-12-28T23:25:13.689Z,34.90
2022-12-28T23:27:44.042Z,46.50
2022-12-28T23:30:18.255Z,29.10
2022-12-28T23:32:47.742Z,43.10
2022-12-28T23:35:17.809Z,45.20
2022-12-28T23:37:46.758Z,23.40
2022-12-28T23:40:16.844Z,35.20
2022-12-28T23:42:45.259Z,47.00
2022-12-28T23:45:16.851Z,37.60
2022-12-28T23:47:45.898Z,52.30
2022-12-28T23:50:15.628Z,76.00
2022-12-28T23:52:43.789Z,43.60
2022-12-28T23:55:12.162Z,46.60
2022-12-28T23:57:40.334Z,28.70
